»·PEaware :: AAL225 KSEA-CYVR

AAL225 :: KSEA-CYVR

FLIGHT INFORMATION

Flight Status: Arrived
Operator:
American Airlines
More flights by this operator :: More flights under this callsign
Pilot: Michael R. (16974)
Aircraft: BOEING 737-800
(B738)
More flights by this aircraft type
Origin: KSEA Seattle-Tacoma Intl
United States
Destination: CYVR Vancouver Intl
Canada
More flights between these airports :: More routes between these airports
Route: +ATOME2 PAE GRIZZ5
File this flight plan on PilotEdge
Remarks:
Altitude:
(Current/Filed)
16,000ft
Speed:
(Current/Filed)
370kts
Departed: 03-Mar-18 11:55 AM
Arrived: 03-Mar-18 12:29 PM
Distance/Time
Traveled:
111nm/0:34
Distance/Time
To Go:
Arrived

Flight Plot

Page will automatically refresh every two minutes.

Flight plan parsing failed; only flown route is shown


Map Options




Map Legend


Flown Route
Filed Route
Departure Airport
Arrival Airport
Navaid (VOR, NDB)
Fix

Horizontal Profiles

Position Reports

Time Latitude Longitude Heading Altitude Ground
Speed
03-Mar-18 11:21 47.447642 -122.302326 41 397ft 0kts
03-Mar-18 11:22 47.447642 -122.302326 41 397ft 0kts
03-Mar-18 11:23 47.447642 -122.302326 41 397ft 0kts
03-Mar-18 11:24 47.447642 -122.302326 41 397ft 0kts
03-Mar-18 11:25 47.447642 -122.302326 41 397ft 0kts
03-Mar-18 11:26 47.447642 -122.302326 41 397ft 0kts
03-Mar-18 11:27 47.447642 -122.302326 41 397ft 0kts
03-Mar-18 11:28 47.447642 -122.302326 41 397ft 0kts
03-Mar-18 11:29 47.447642 -122.302326 41 397ft 0kts
03-Mar-18 11:30 47.447642 -122.302326 41 397ft 0kts
03-Mar-18 11:31 47.447642 -122.302326 41 397ft 0kts
03-Mar-18 11:32 47.447642 -122.302326 41 397ft 0kts
03-Mar-18 11:33 47.447642 -122.302326 41 397ft 0kts
03-Mar-18 11:34 47.447642 -122.302326 41 397ft 0kts
03-Mar-18 11:35 47.447642 -122.302326 41 397ft 0kts
03-Mar-18 11:36 47.447642 -122.302326 41 397ft 0kts
03-Mar-18 11:37 47.447642 -122.302326 41 397ft 0kts
03-Mar-18 11:38 47.447642 -122.302326 41 397ft 0kts
03-Mar-18 11:39 47.447642 -122.302326 41 397ft 0kts
03-Mar-18 11:40 47.447642 -122.302326 41 397ft 0kts
03-Mar-18 11:41 47.447642 -122.302326 41 397ft 0kts
03-Mar-18 11:42 47.447642 -122.302326 41 397ft 0kts
03-Mar-18 11:43 47.447642 -122.302326 41 397ft 0kts
03-Mar-18 11:44 47.447642 -122.302326 41 397ft 0kts
03-Mar-18 11:45 47.447642 -122.302326 41 397ft 0kts
03-Mar-18 11:46 47.447511 -122.302493 41 396ft 2kts
03-Mar-18 11:47 47.447052 -122.302868 342 395ft 2kts
03-Mar-18 11:48 47.446887 -122.302668 306 394ft 0kts
03-Mar-18 11:49 47.446887 -122.302668 306 394ft 0kts
03-Mar-18 11:50 47.447358 -122.303584 308 397ft 0kts
03-Mar-18 11:51 47.447358 -122.303584 308 397ft 0kts
03-Mar-18 11:52 47.447358 -122.303584 308 397ft 0kts
03-Mar-18 11:53 47.447358 -122.303584 308 397ft 0kts
03-Mar-18 11:54 47.447399 -122.303662 308 398ft 3kts
03-Mar-18 11:55 47.446916 -122.306271 180 396ft 21kts
03-Mar-18 11:56 47.439625 -122.306315 180 371ft 29kts
03-Mar-18 11:57 47.432842 -122.305572 185 335ft 22kts
03-Mar-18 11:58 47.431796 -122.306506 248 327ft 0kts
03-Mar-18 11:59 47.431796 -122.306506 248 327ft 0kts
03-Mar-18 12:00 47.431796 -122.306506 248 327ft 0kts
03-Mar-18 12:01 47.432356 -122.308020 354 329ft 0kts
03-Mar-18 12:02 47.442961 -122.307983 0 387ft 146kts
03-Mar-18 12:03 47.494077 -122.307916 3 2869ft 229kts
03-Mar-18 12:04 47.550661 -122.310066 352 5761ft 265kts
03-Mar-18 12:05 47.613212 -122.372174 307 8987ft 285kts
03-Mar-18 12:06 47.677739 -122.455690 358 9028ft 282kts
03-Mar-18 12:07 47.755477 -122.457645 19 9018ft 280kts
03-Mar-18 12:08 47.822578 -122.398408 32 9018ft 281kts
03-Mar-18 12:09 47.883668 -122.326408 42 9018ft 284kts
03-Mar-18 12:10 47.940379 -122.283729 355 9033ft 295kts
03-Mar-18 12:11 48.023926 -122.307812 348 12501ft 322kts
03-Mar-18 12:12 48.124593 -122.337041 349 15413ft 336kts
03-Mar-18 12:13 48.204983 -122.360350 349 16031ft 375kts
03-Mar-18 12:14 48.303812 -122.389249 350 15962ft 368kts
03-Mar-18 12:15 48.404659 -122.418792 350 15946ft 371kts
03-Mar-18 12:16 48.506114 -122.448641 350 15928ft 372kts
03-Mar-18 12:17 48.607661 -122.478633 350 15911ft 373kts
03-Mar-18 12:18 48.707763 -122.515679 332 15862ft 376kts
03-Mar-18 12:19 48.776869 -122.634971 310 15813ft 380kts
03-Mar-18 12:20 48.835007 -122.750157 311 15812ft 336kts
03-Mar-18 12:21 48.892934 -122.863909 311 15847ft 341kts
03-Mar-18 12:22 48.952439 -122.974715 326 15819ft 335kts
03-Mar-18 12:23 49.035982 -122.996282 14 14243ft 311kts
03-Mar-18 12:24 49.068219 -122.892120 86 11795ft 297kts
03-Mar-18 12:25 49.071727 -122.767374 86 9294ft 294kts
03-Mar-18 12:26 49.076767 -122.643583 78 6793ft 292kts
03-Mar-18 12:27 49.135036 -122.600520 323 4441ft 286kts
03-Mar-18 12:28 49.154656 -122.709721 274 3001ft 257kts
03-Mar-18 12:29 49.160339 -122.801771 277 2868ft 200kts
03-Mar-18 12:30 49.168485 -122.881516 279 2434ft 176kts
03-Mar-18 12:31 49.176430 -122.951101 279 2023ft 157kts
03-Mar-18 12:32 49.183711 -123.014162 279 1709ft 151kts
03-Mar-18 12:33 49.190836 -123.075863 278 1146ft 144kts
03-Mar-18 12:34 49.197313 -123.132658 280 414ft 131kts
03-Mar-18 12:35 49.202802 -123.181183 280 18ft 81kts
03-Mar-18 12:36 49.203707 -123.189390 278 17ft 33kts
03-Mar-18 12:37 49.201746 -123.191254 102 17ft 33kts
03-Mar-18 12:38 49.199835 -123.187585 188 14ft 0kts
03-Mar-18 12:39 49.199835 -123.187585 188 14ft 0kts
03-Mar-18 12:40 49.199835 -123.187585 188 14ft 0kts

Navigation Log

Ident Type
Flight plan parsing failed, navigation log unavailable